createdAt,value
2022-12-23T00:00:37.062Z,5.55
2022-12-23T00:01:37.211Z,5.55
2022-12-23T00:02:37.236Z,5.56
2022-12-23T00:03:37.091Z,5.57
2022-12-23T00:04:37.011Z,5.60
2022-12-23T00:05:38.134Z,5.63
2022-12-23T00:06:37.016Z,5.67
2022-12-23T00:07:37.011Z,5.68
2022-12-23T00:08:36.968Z,5.71
2022-12-23T00:09:36.956Z,5.74
2022-12-23T00:10:36.945Z,5.74
2022-12-23T00:11:36.949Z,5.77
2022-12-23T00:12:36.928Z,5.77
2022-12-23T00:13:36.899Z,5.81
2022-12-23T00:14:36.925Z,5.83
2022-12-23T00:15:36.886Z,5.85
2022-12-23T00:16:37.003Z,5.83
2022-12-23T00:17:36.871Z,5.85
2022-12-23T00:18:36.889Z,5.86
2022-12-23T00:19:36.838Z,5.88
2022-12-23T00:20:36.832Z,5.89
2022-12-23T00:21:36.833Z,5.89
2022-12-23T00:22:36.822Z,5.88
2022-12-23T00:23:36.804Z,5.91
2022-12-23T00:24:36.783Z,5.91
2022-12-23T00:25:36.832Z,5.92
2022-12-23T00:26:36.775Z,5.92
2022-12-23T00:27:37.829Z,5.95
2022-12-23T00:28:36.751Z,5.93
2022-12-23T00:29:36.794Z,5.93
2022-12-23T00:30:36.733Z,5.95
2022-12-23T00:31:36.795Z,5.95
2022-12-23T00:32:36.731Z,5.96
2022-12-23T00:33:36.740Z,5.96
2022-12-23T00:34:36.674Z,5.98
2022-12-23T00:35:36.765Z,5.96
2022-12-23T00:36:36.704Z,5.96
2022-12-23T00:37:36.676Z,5.98
2022-12-23T00:38:36.626Z,5.96
2022-12-23T00:39:36.637Z,6.00
2022-12-23T00:40:36.651Z,6.01
2022-12-23T00:41:36.599Z,6.01
2022-12-23T00:42:36.609Z,6.01
2022-12-23T00:43:36.577Z,6.03
2022-12-23T00:44:36.573Z,6.04
2022-12-23T00:45:36.608Z,6.06
2022-12-23T00:46:36.548Z,6.09
2022-12-23T00:47:36.561Z,6.09
2022-12-23T00:48:36.515Z,6.10
2022-12-23T00:49:36.515Z,6.09
2022-12-23T00:50:36.511Z,6.09
2022-12-23T00:51:36.481Z,6.10
2022-12-23T00:52:36.487Z,6.10
2022-12-23T00:53:36.497Z,6.09
2022-12-23T00:54:36.480Z,6.09
2022-12-23T00:55:36.436Z,6.10
2022-12-23T00:56:36.433Z,6.09
2022-12-23T00:57:36.454Z,6.09
2022-12-23T00:58:36.407Z,6.09
2022-12-23T00:59:36.414Z,6.10
2022-12-23T01:00:41.407Z,6.09
2022-12-23T01:01:36.508Z,6.11
2022-12-23T01:02:36.574Z,6.11
2022-12-23T01:03:36.386Z,6.14
2022-12-23T01:04:36.379Z,6.14
2022-12-23T01:05:36.358Z,6.18
2022-12-23T01:06:36.315Z,6.18
2022-12-23T01:07:36.341Z,6.21
2022-12-23T01:08:36.288Z,6.25
2022-12-23T01:09:36.278Z,6.25
2022-12-23T01:10:36.306Z,6.25
2022-12-23T01:11:36.260Z,6.22
2022-12-23T01:12:36.269Z,6.25
2022-12-23T01:13:36.264Z,6.22
2022-12-23T01:14:36.235Z,6.22
2022-12-23T01:15:36.219Z,6.22
2022-12-23T01:16:36.252Z,6.22
2022-12-23T01:17:36.233Z,6.22
2022-12-23T01:18:36.204Z,6.25
2022-12-23T01:19:36.191Z,6.22
2022-12-23T01:20:36.172Z,6.25
2022-12-23T01:21:36.154Z,6.22
2022-12-23T01:22:36.150Z,6.21
2022-12-23T01:23:36.137Z,6.19
2022-12-23T01:24:36.118Z,6.16
2022-12-23T01:25:36.112Z,6.18
2022-12-23T01:26:36.111Z,6.18
2022-12-23T01:27:36.101Z,6.19
2022-12-23T01:28:36.061Z,6.16
2022-12-23T01:29:36.061Z,6.18
2022-12-23T01:30:36.099Z,6.21
2022-12-23T01:31:36.116Z,6.21
2022-12-23T01:32:36.061Z,6.18
2022-12-23T01:33:36.028Z,6.19
2022-12-23T01:34:37.595Z,6.16
2022-12-23T01:35:36.002Z,6.18
2022-12-23T01:36:35.984Z,6.19
2022-12-23T01:37:36.024Z,6.22
2022-12-23T01:38:35.999Z,6.22
2022-12-23T01:39:35.956Z,6.21
2022-12-23T01:40:35.946Z,6.22
2022-12-23T01:41:35.950Z,6.22
2022-12-23T01:42:35.947Z,6.21
2022-12-23T01:43:35.911Z,6.19
2022-12-23T01:44:35.886Z,6.21
2022-12-23T01:45:35.958Z,6.19
2022-12-23T01:46:35.883Z,6.14
2022-12-23T01:47:35.906Z,6.18
2022-12-23T01:48:35.859Z,6.18
2022-12-23T01:49:35.839Z,6.19
2022-12-23T01:50:35.837Z,6.21
2022-12-23T01:51:35.827Z,6.25
2022-12-23T01:52:35.830Z,6.22
2022-12-23T01:53:35.799Z,6.25
2022-12-23T01:54:35.775Z,6.25
2022-12-23T01:55:35.772Z,6.25
2022-12-23T01:56:35.762Z,6.22
2022-12-23T01:57:35.856Z,6.26
2022-12-23T01:58:35.736Z,6.25
2022-12-23T01:59:35.731Z,6.22
2022-12-23T02:00:35.724Z,6.25
2022-12-23T02:01:35.798Z,6.25
2022-12-23T02:02:35.843Z,6.22
2022-12-23T02:03:35.725Z,6.25
2022-12-23T02:04:35.667Z,6.22
2022-12-23T02:05:35.694Z,6.22
2022-12-23T02:06:35.648Z,6.22
2022-12-23T02:07:35.700Z,6.22
2022-12-23T02:08:35.647Z,6.25
2022-12-23T02:09:35.644Z,6.22
2022-12-23T02:10:35.612Z,6.25
2022-12-23T02:11:35.614Z,6.25
2022-12-23T02:12:35.605Z,6.26
2022-12-23T02:13:35.571Z,6.26
2022-12-23T02:14:35.606Z,6.28
2022-12-23T02:15:35.563Z,6.29
2022-12-23T02:16:35.613Z,6.28
2022-12-23T02:17:35.564Z,6.29
2022-12-23T02:18:35.531Z,6.29
2022-12-23T02:19:35.553Z,6.30
2022-12-23T02:20:35.567Z,6.32
2022-12-23T02:21:35.496Z,6.33
2022-12-23T02:22:35.534Z,6.36
2022-12-23T02:23:35.459Z,6.36
2022-12-23T02:24:35.451Z,6.36
2022-12-23T02:25:35.459Z,6.35
2022-12-23T02:26:35.436Z,6.33
2022-12-23T02:27:36.212Z,6.33
2022-12-23T02:28:35.403Z,6.33
2022-12-23T02:29:35.404Z,6.36
2022-12-23T02:30:35.429Z,6.36
2022-12-23T02:31:35.393Z,6.40
2022-12-23T02:32:35.387Z,6.40
2022-12-23T02:33:35.362Z,6.40
2022-12-23T02:34:35.341Z,6.38
2022-12-23T02:35:35.340Z,6.36
2022-12-23T02:36:35.313Z,6.36
2022-12-23T02:37:35.324Z,6.36
2022-12-23T02:38:35.301Z,6.36
2022-12-23T02:39:35.296Z,6.36
2022-12-23T02:40:35.267Z,6.38
2022-12-23T02:41:35.305Z,6.40
2022-12-23T02:42:35.275Z,6.40
2022-12-23T02:43:35.241Z,6.43
2022-12-23T02:44:35.232Z,6.44
2022-12-23T02:45:35.249Z,6.44
2022-12-23T02:46:35.262Z,6.43
2022-12-23T02:47:35.235Z,6.46
2022-12-23T02:48:35.188Z,6.44
2022-12-23T02:49:35.171Z,6.47
2022-12-23T02:50:35.168Z,6.46
2022-12-23T02:51:35.145Z,6.46
2022-12-23T02:52:35.156Z,6.43
2022-12-23T02:53:35.134Z,6.43
2022-12-23T02:54:35.112Z,6.43
2022-12-23T02:55:35.121Z,6.43
2022-12-23T02:56:35.091Z,6.43
2022-12-23T02:57:35.099Z,6.43
2022-12-23T02:58:35.088Z,6.43
2022-12-23T02:59:35.076Z,6.43
2022-12-23T03:00:35.056Z,6.43
2022-12-23T03:01:35.151Z,6.43
2022-12-23T03:02:35.421Z,6.46
2022-12-23T03:03:35.151Z,6.44
2022-12-23T03:04:35.018Z,6.43
2022-12-23T03:05:34.990Z,6.44
2022-12-23T03:06:34.995Z,6.44
2022-12-23T03:07:34.999Z,6.47
2022-12-23T03:08:34.994Z,6.46
2022-12-23T03:09:34.952Z,6.47
2022-12-23T03:10:34.939Z,6.46
2022-12-23T03:11:34.945Z,6.46
2022-12-23T03:12:34.945Z,6.44
2022-12-23T03:13:34.906Z,6.44
2022-12-23T03:14:34.936Z,6.44
2022-12-23T03:15:34.974Z,6.44
2022-12-23T03:16:34.896Z,6.46
2022-12-23T03:17:34.932Z,6.47
2022-12-23T03:18:34.874Z,6.47
2022-12-23T03:19:34.840Z,6.48
2022-12-23T03:20:34.821Z,6.48
2022-12-23T03:21:34.822Z,6.48
2022-12-23T03:22:34.809Z,6.46
2022-12-23T03:23:34.816Z,6.47
2022-12-23T03:24:34.799Z,6.48
2022-12-23T03:25:34.777Z,6.48
2022-12-23T03:26:34.762Z,6.50
2022-12-23T03:27:34.762Z,6.51
2022-12-23T03:28:34.774Z,6.51
2022-12-23T03:29:34.719Z,6.50
2022-12-23T03:30:34.749Z,6.50
2022-12-23T03:31:34.795Z,6.50
2022-12-23T03:32:34.703Z,6.48
2022-12-23T03:33:34.714Z,6.48
2022-12-23T03:34:34.678Z,6.48
2022-12-23T03:35:34.671Z,6.48
2022-12-23T03:36:34.647Z,6.48
2022-12-23T03:37:34.661Z,6.46
2022-12-23T03:38:34.654Z,6.44
2022-12-23T03:39:34.633Z,6.44
2022-12-23T03:40:34.650Z,6.41
2022-12-23T03:41:34.597Z,6.44
2022-12-23T03:42:34.582Z,6.43
2022-12-23T03:43:34.589Z,6.43
2022-12-23T03:44:34.566Z,6.44
2022-12-23T03:45:39.717Z,6.44
2022-12-23T03:46:34.709Z,6.44
2022-12-23T03:47:34.530Z,6.43
2022-12-23T03:48:34.559Z,6.44
2022-12-23T03:49:34.517Z,6.43
2022-12-23T03:50:34.498Z,6.43
2022-12-23T03:51:34.504Z,6.43
2022-12-23T03:52:34.472Z,6.43
2022-12-23T03:53:34.503Z,6.43
2022-12-23T03:54:34.468Z,6.40
2022-12-23T03:55:34.464Z,6.41
2022-12-23T03:56:34.435Z,6.40
2022-12-23T03:57:34.418Z,6.40
2022-12-23T03:58:34.435Z,6.41
2022-12-23T03:59:34.413Z,6.40
2022-12-23T04:00:34.382Z,6.41
2022-12-23T04:01:34.479Z,6.43
2022-12-23T04:02:34.446Z,6.43
2022-12-23T04:03:34.435Z,6.43
2022-12-23T04:04:34.363Z,6.44
2022-12-23T04:05:34.339Z,6.47
2022-12-23T04:06:34.316Z,6.47
2022-12-23T04:07:34.320Z,6.48
2022-12-23T04:08:34.304Z,6.47
2022-12-23T04:09:34.289Z,6.48
2022-12-23T04:10:34.295Z,6.50
2022-12-23T04:11:34.261Z,6.47
2022-12-23T04:12:34.262Z,6.47
2022-12-23T04:13:34.280Z,6.46
2022-12-23T04:14:34.235Z,6.46
2022-12-23T04:15:34.227Z,6.44
2022-12-23T04:16:34.253Z,6.44
2022-12-23T04:17:34.192Z,6.44
2022-12-23T04:18:34.203Z,6.43
2022-12-23T04:19:34.191Z,6.44
2022-12-23T04:20:34.161Z,6.46
2022-12-23T04:21:34.171Z,6.46
2022-12-23T04:22:34.165Z,6.46
2022-12-23T04:23:34.151Z,6.48
2022-12-23T04:24:34.126Z,6.47
2022-12-23T04:25:34.123Z,6.47
2022-12-23T04:26:34.091Z,6.46
2022-12-23T04:27:34.077Z,6.43
2022-12-23T04:28:34.090Z,6.44
2022-12-23T04:29:34.071Z,6.43
2022-12-23T04:30:34.959Z,6.43
2022-12-23T04:31:34.145Z,6.40
2022-12-23T04:32:34.053Z,6.40
2022-12-23T04:33:34.049Z,6.40
2022-12-23T04:34:34.023Z,6.41
2022-12-23T04:35:33.995Z,6.43
2022-12-23T04:36:33.988Z,6.41
2022-12-23T04:37:33.977Z,6.43
2022-12-23T04:38:33.990Z,6.43
2022-12-23T04:39:33.966Z,6.43
2022-12-23T04:40:33.951Z,6.43
2022-12-23T04:41:33.951Z,6.43
2022-12-23T04:42:33.945Z,6.43
2022-12-23T04:43:33.929Z,6.43
2022-12-23T04:44:33.893Z,6.41
2022-12-23T04:45:33.888Z,6.43
2022-12-23T04:46:33.959Z,6.43
2022-12-23T04:47:33.862Z,6.44
2022-12-23T04:48:33.879Z,6.41
2022-12-23T04:49:33.842Z,6.40
2022-12-23T04:50:33.860Z,6.38
2022-12-23T04:51:33.827Z,6.36
2022-12-23T04:52:33.812Z,6.36
2022-12-23T04:53:33.818Z,6.35
2022-12-23T04:54:33.789Z,6.35
2022-12-23T04:55:33.796Z,6.35
2022-12-23T04:56:33.792Z,6.32
2022-12-23T04:57:33.749Z,6.30
2022-12-23T04:58:33.770Z,6.29
2022-12-23T04:59:33.737Z,6.28
2022-12-23T05:00:39.153Z,6.28
2022-12-23T05:01:33.918Z,6.26
2022-12-23T05:02:33.799Z,6.25
2022-12-23T05:03:33.771Z,6.26
2022-12-23T05:04:33.732Z,6.26
2022-12-23T05:05:33.675Z,6.29
2022-12-23T05:06:33.657Z,6.28
2022-12-23T05:07:33.651Z,6.26
2022-12-23T05:08:33.646Z,6.26
2022-12-23T05:09:33.629Z,6.25
2022-12-23T05:10:33.642Z,6.25
2022-12-23T05:11:38.532Z,6.22
2022-12-23T05:12:33.587Z,6.25
2022-12-23T05:13:33.606Z,6.25
2022-12-23T05:14:33.569Z,6.25
2022-12-23T05:15:33.566Z,6.25
2022-12-23T05:16:33.641Z,6.25
2022-12-23T05:17:33.547Z,6.25
2022-12-23T05:18:33.562Z,6.25
2022-12-23T05:19:33.511Z,6.25
2022-12-23T05:20:33.505Z,6.26
2022-12-23T05:21:33.488Z,6.26
2022-12-23T05:22:33.480Z,6.25
2022-12-23T05:23:33.505Z,6.26
2022-12-23T05:24:33.460Z,6.26
2022-12-23T05:25:33.446Z,6.26
2022-12-23T05:26:33.439Z,6.25
2022-12-23T05:27:33.424Z,6.25
2022-12-23T05:28:33.420Z,6.22
2022-12-23T05:29:33.482Z,6.25
2022-12-23T05:30:33.393Z,6.21
2022-12-23T05:31:33.477Z,6.21
2022-12-23T05:32:33.375Z,6.22
2022-12-23T05:33:33.411Z,6.21
2022-12-23T05:34:33.361Z,6.21
2022-12-23T05:35:33.353Z,6.21
2022-12-23T05:36:33.326Z,6.21
2022-12-23T05:37:33.313Z,6.21
2022-12-23T05:38:33.307Z,6.21
2022-12-23T05:39:33.297Z,6.19
2022-12-23T05:40:33.787Z,6.22
2022-12-23T05:41:33.273Z,6.25
2022-12-23T05:42:33.251Z,6.25
2022-12-23T05:43:33.248Z,6.26
2022-12-23T05:44:33.243Z,6.29
2022-12-23T05:45:33.277Z,6.29
2022-12-23T05:46:33.322Z,6.28
2022-12-23T05:47:33.200Z,6.28
2022-12-23T05:48:33.197Z,6.30
2022-12-23T05:49:33.202Z,6.29
2022-12-23T05:50:33.178Z,6.30
2022-12-23T05:51:33.147Z,6.29
2022-12-23T05:52:33.170Z,6.28
2022-12-23T05:53:33.134Z,6.26
2022-12-23T05:54:33.171Z,6.22
2022-12-23T05:55:33.107Z,6.26
2022-12-23T05:56:33.107Z,6.25
2022-12-23T05:57:33.126Z,6.26
2022-12-23T05:58:33.085Z,6.26
2022-12-23T05:59:33.071Z,6.26
2022-12-23T06:00:33.062Z,6.28
2022-12-23T06:01:33.070Z,6.29
2022-12-23T06:02:33.296Z,6.28
2022-12-23T06:03:33.321Z,6.28
2022-12-23T06:04:33.010Z,6.28
2022-12-23T06:05:32.997Z,6.29
2022-12-23T06:06:33.002Z,6.30
2022-12-23T06:07:32.995Z,6.29
2022-12-23T06:08:32.967Z,6.28
2022-12-23T06:09:32.969Z,6.29
2022-12-23T06:10:32.976Z,6.29
2022-12-23T06:11:32.936Z,6.28
2022-12-23T06:12:32.927Z,6.28
2022-12-23T06:13:32.925Z,6.26
2022-12-23T06:14:32.924Z,6.25
2022-12-23T06:15:32.901Z,6.22
2022-12-23T06:16:32.909Z,6.22
2022-12-23T06:17:32.959Z,6.25
2022-12-23T06:18:32.872Z,6.26
2022-12-23T06:19:32.846Z,6.26
2022-12-23T06:20:32.854Z,6.28
2022-12-23T06:21:32.861Z,6.26
2022-12-23T06:22:32.811Z,6.28
2022-12-23T06:23:32.799Z,6.26
2022-12-23T06:24:32.799Z,6.26
2022-12-23T06:25:32.828Z,6.25
2022-12-23T06:26:32.776Z,6.22
2022-12-23T06:27:32.764Z,6.22
2022-12-23T06:28:32.776Z,6.22
2022-12-23T06:29:32.734Z,6.21
2022-12-23T06:30:32.736Z,6.19
2022-12-23T06:31:32.769Z,6.19
2022-12-23T06:32:37.904Z,6.14
2022-12-23T06:33:32.706Z,6.13
2022-12-23T06:34:32.684Z,6.13
2022-12-23T06:35:32.749Z,6.11
2022-12-23T06:36:32.665Z,6.10
2022-12-23T06:37:32.650Z,6.09
2022-12-23T06:38:32.665Z,6.11
2022-12-23T06:39:32.636Z,6.09
2022-12-23T06:40:32.640Z,6.07
2022-12-23T06:41:32.613Z,6.07
2022-12-23T06:42:32.612Z,6.07
2022-12-23T06:43:32.601Z,6.04
2022-12-23T06:44:32.568Z,6.03
2022-12-23T06:45:32.623Z,6.03
2022-12-23T06:46:32.587Z,6.01
2022-12-23T06:47:32.535Z,6.00
2022-12-23T06:48:32.553Z,5.98
2022-12-23T06:49:32.515Z,5.96
2022-12-23T06:50:32.520Z,5.92
2022-12-23T06:51:33.570Z,5.91
2022-12-23T06:52:32.501Z,5.88
2022-12-23T06:53:32.479Z,5.85
2022-12-23T06:54:32.480Z,5.81
2022-12-23T06:55:32.464Z,5.78
2022-12-23T06:56:32.453Z,5.77
2022-12-23T06:57:32.425Z,5.77
2022-12-23T06:58:32.464Z,5.77
2022-12-23T06:59:32.399Z,5.77
2022-12-23T07:00:32.399Z,5.74
2022-12-23T07:01:32.497Z,5.73
2022-12-23T07:02:32.437Z,5.71
2022-12-23T07:03:32.393Z,5.71
2022-12-23T07:04:32.360Z,5.71
2022-12-23T07:05:36.944Z,5.73
2022-12-23T07:06:32.330Z,5.73
2022-12-23T07:07:32.320Z,5.74
2022-12-23T07:08:32.323Z,5.75
2022-12-23T07:09:32.295Z,5.75
2022-12-23T07:10:32.295Z,5.78
2022-12-23T07:11:32.275Z,5.77
2022-12-23T07:12:32.258Z,5.78
2022-12-23T07:13:32.249Z,5.81
2022-12-23T07:14:32.240Z,5.81
2022-12-23T07:15:32.281Z,5.82
2022-12-23T07:16:32.240Z,5.82
2022-12-23T07:17:32.225Z,5.82
2022-12-23T07:18:32.193Z,5.82
2022-12-23T07:19:32.198Z,5.82
2022-12-23T07:20:32.195Z,5.85
2022-12-23T07:21:32.159Z,5.85
2022-12-23T07:22:32.174Z,5.85
2022-12-23T07:23:32.140Z,5.85
2022-12-23T07:24:32.143Z,5.86
2022-12-23T07:25:32.134Z,5.86
2022-12-23T07:26:32.119Z,5.89
2022-12-23T07:27:32.127Z,5.89
2022-12-23T07:28:32.100Z,5.89
2022-12-23T07:29:32.633Z,5.91
2022-12-23T07:30:32.076Z,5.91
2022-12-23T07:31:32.157Z,5.92
2022-12-23T07:32:32.029Z,5.93
2022-12-23T07:33:32.026Z,5.95
2022-12-23T07:34:32.030Z,5.95
2022-12-23T07:35:32.016Z,5.95
2022-12-23T07:36:32.001Z,5.95
2022-12-23T07:37:31.998Z,5.98
2022-12-23T07:38:31.973Z,5.98
2022-12-23T07:39:31.979Z,5.98
2022-12-23T07:40:31.979Z,6.00
2022-12-23T07:41:31.947Z,5.96
2022-12-23T07:42:47.385Z,5.95
2022-12-23T07:43:31.956Z,5.95
2022-12-23T07:44:31.913Z,5.95
2022-12-23T07:45:31.980Z,5.95
2022-12-23T07:46:31.949Z,5.96
2022-12-23T07:47:31.872Z,5.96
2022-12-23T07:48:31.869Z,5.95
2022-12-23T07:49:31.863Z,5.96
2022-12-23T07:50:31.858Z,5.95
2022-12-23T07:51:31.829Z,5.96
2022-12-23T07:52:31.815Z,5.96
2022-12-23T07:53:31.812Z,6.00
2022-12-23T07:54:31.793Z,5.98
2022-12-23T07:55:31.802Z,5.98
2022-12-23T07:56:31.785Z,5.98
2022-12-23T07:57:31.756Z,5.98
2022-12-23T07:58:31.751Z,6.00
2022-12-23T07:59:31.740Z,6.00
2022-12-23T08:00:31.737Z,5.98
2022-12-23T08:01:31.883Z,6.00
2022-12-23T08:02:32.040Z,5.98
2022-12-23T08:03:31.756Z,5.98
2022-12-23T08:04:31.727Z,6.00
2022-12-23T08:05:31.778Z,6.00
2022-12-23T08:06:31.667Z,5.98
2022-12-23T08:07:31.651Z,6.00
2022-12-23T08:08:31.648Z,6.00
2022-12-23T08:09:31.634Z,6.00
2022-12-23T08:10:31.639Z,6.01
2022-12-23T08:11:31.606Z,6.03
2022-12-23T08:12:31.610Z,6.04
2022-12-23T08:13:31.608Z,6.04
2022-12-23T08:14:31.571Z,6.04
2022-12-23T08:15:31.579Z,6.06
2022-12-23T08:16:34.318Z,6.06
2022-12-23T08:17:31.564Z,6.07
2022-12-23T08:18:31.569Z,6.07
2022-12-23T08:19:31.543Z,6.07
2022-12-23T08:20:31.522Z,6.07
2022-12-23T08:21:31.542Z,6.09
2022-12-23T08:22:31.489Z,6.10
2022-12-23T08:23:31.482Z,6.09
2022-12-23T08:24:31.465Z,6.09
2022-12-23T08:25:31.460Z,6.10
2022-12-23T08:26:31.484Z,6.11
2022-12-23T08:27:31.465Z,6.13
2022-12-23T08:28:31.423Z,6.13
2022-12-23T08:29:36.203Z,6.14
2022-12-23T08:30:31.460Z,6.16
2022-12-23T08:31:31.555Z,6.16
2022-12-23T08:32:31.472Z,6.18
2022-12-23T08:33:31.376Z,6.19
2022-12-23T08:34:31.425Z,6.19
2022-12-23T08:35:31.420Z,6.21
2022-12-23T08:36:31.343Z,6.19
2022-12-23T08:37:31.343Z,6.19
2022-12-23T08:38:31.360Z,6.21
2022-12-23T08:39:31.300Z,6.22
2022-12-23T08:40:31.297Z,6.25
2022-12-23T08:41:31.271Z,6.26
2022-12-23T08:42:31.267Z,6.28
2022-12-23T08:43:35.740Z,6.26
2022-12-23T08:44:31.258Z,6.28
2022-12-23T08:45:31.251Z,6.26
2022-12-23T08:46:31.303Z,6.26
2022-12-23T08:47:31.206Z,6.29
2022-12-23T08:48:31.273Z,6.28
2022-12-23T08:49:31.205Z,6.29
2022-12-23T08:50:31.182Z,6.29
2022-12-23T08:51:31.211Z,6.32
2022-12-23T08:52:31.161Z,6.33
2022-12-23T08:53:31.165Z,6.33
2022-12-23T08:54:31.130Z,6.35
2022-12-23T08:55:31.135Z,6.35
2022-12-23T08:56:31.180Z,6.33
2022-12-23T08:57:31.168Z,6.35
2022-12-23T08:58:31.129Z,6.36
2022-12-23T08:59:31.142Z,6.40
2022-12-23T09:00:31.063Z,6.40
2022-12-23T09:01:31.459Z,6.43
2022-12-23T09:02:31.400Z,6.43
2022-12-23T09:03:31.223Z,6.44
2022-12-23T09:04:31.306Z,6.44
2022-12-23T09:05:31.394Z,6.46
2022-12-23T09:06:31.216Z,6.46
2022-12-23T09:07:31.133Z,6.44
2022-12-23T09:08:31.093Z,6.44
2022-12-23T09:09:31.317Z,6.46
2022-12-23T09:10:31.547Z,6.44
2022-12-23T09:11:31.185Z,6.47
2022-12-23T09:12:31.138Z,6.47
2022-12-23T09:13:35.638Z,6.46
2022-12-23T09:14:30.991Z,6.46
2022-12-23T09:15:31.199Z,6.47
2022-12-23T09:16:31.040Z,6.46
2022-12-23T09:17:30.977Z,6.48
2022-12-23T09:18:31.444Z,6.48
2022-12-23T09:19:31.055Z,6.50
2022-12-23T09:20:30.962Z,6.48
2022-12-23T09:21:31.083Z,6.48
2022-12-23T09:22:31.291Z,6.48
2022-12-23T09:23:30.960Z,6.47
2022-12-23T09:24:31.076Z,6.47
2022-12-23T09:25:31.097Z,6.46
2022-12-23T09:26:30.824Z,6.47
2022-12-23T09:27:30.874Z,6.47
2022-12-23T09:28:30.987Z,6.48
2022-12-23T09:29:30.946Z,6.50
2022-12-23T09:30:30.738Z,6.50
2022-12-23T09:31:36.902Z,6.50
2022-12-23T09:32:30.736Z,6.50
2022-12-23T09:33:30.862Z,6.51
2022-12-23T09:34:30.953Z,6.51
2022-12-23T09:35:30.769Z,6.51
2022-12-23T09:36:30.849Z,6.51
2022-12-23T09:37:30.662Z,6.51
2022-12-23T09:38:30.653Z,6.53
2022-12-23T09:39:30.655Z,6.51
2022-12-23T09:40:30.629Z,6.53
2022-12-23T09:41:30.676Z,6.53
2022-12-23T09:42:30.597Z,6.56
2022-12-23T09:43:30.630Z,6.54
2022-12-23T09:44:30.584Z,6.53
2022-12-23T09:45:35.474Z,6.54
2022-12-23T09:46:30.920Z,6.53
2022-12-23T09:47:31.106Z,6.53
2022-12-23T09:48:30.922Z,6.54
2022-12-23T09:49:30.959Z,6.56
2022-12-23T09:50:30.739Z,6.58
2022-12-23T09:51:31.160Z,6.58
2022-12-23T09:52:30.828Z,6.59
2022-12-23T09:53:30.499Z,6.59
2022-12-23T09:54:30.490Z,6.59
2022-12-23T09:55:30.459Z,6.58
2022-12-23T09:56:30.489Z,6.58
2022-12-23T09:57:30.445Z,6.59
2022-12-23T09:58:30.472Z,6.61
2022-12-23T09:59:30.433Z,6.59
2022-12-23T10:00:30.446Z,6.61
2022-12-23T10:01:30.540Z,6.59
2022-12-23T10:02:30.606Z,6.61
2022-12-23T10:03:30.653Z,6.61
2022-12-23T10:04:30.502Z,6.61
2022-12-23T10:05:30.352Z,6.61
2022-12-23T10:06:30.352Z,6.62
2022-12-23T10:07:30.754Z,6.61
2022-12-23T10:08:30.341Z,6.62
2022-12-23T10:09:30.307Z,6.62
2022-12-23T10:10:30.334Z,6.62
2022-12-23T10:11:30.319Z,6.63
2022-12-23T10:12:34.344Z,6.63
2022-12-23T10:13:30.289Z,6.65
2022-12-23T10:14:30.269Z,6.65
2022-12-23T10:15:30.262Z,6.68
2022-12-23T10:16:30.253Z,6.68
2022-12-23T10:17:30.242Z,6.69
2022-12-23T10:18:30.263Z,6.69
2022-12-23T10:19:30.306Z,6.69
2022-12-23T10:20:30.195Z,6.71
2022-12-23T10:21:30.233Z,6.69
2022-12-23T10:22:30.166Z,6.69
2022-12-23T10:23:30.175Z,6.66
2022-12-23T10:24:30.139Z,6.63
2022-12-23T10:25:30.146Z,6.65
2022-12-23T10:26:30.109Z,6.68
2022-12-23T10:27:30.097Z,6.68
2022-12-23T10:28:30.255Z,6.69
2022-12-23T10:29:30.097Z,6.71
2022-12-23T10:31:40.342Z,6.72
2022-12-23T10:32:30.084Z,6.73
2022-12-23T10:33:30.039Z,6.72
2022-12-23T10:34:36.606Z,6.73
2022-12-23T10:35:30.036Z,6.73
2022-12-23T10:36:30.048Z,6.76
2022-12-23T10:37:36.547Z,6.77
2022-12-23T10:38:29.971Z,6.79
2022-12-23T10:39:29.994Z,6.79
2022-12-23T10:40:29.949Z,6.79
2022-12-23T10:41:29.952Z,6.80
2022-12-23T10:42:29.933Z,6.81
2022-12-23T10:43:30.083Z,6.80
2022-12-23T10:44:29.931Z,6.80
2022-12-23T10:45:29.898Z,6.80
2022-12-23T10:46:29.995Z,6.80
2022-12-23T10:47:29.876Z,6.81
2022-12-23T10:48:29.864Z,6.80
2022-12-23T10:49:29.855Z,6.81
2022-12-23T10:50:29.859Z,6.80
2022-12-23T10:51:29.832Z,6.81
2022-12-23T10:52:29.825Z,6.79
2022-12-23T10:53:29.929Z,6.79
2022-12-23T10:54:29.790Z,6.80
2022-12-23T10:55:33.551Z,6.80
2022-12-23T10:56:29.784Z,6.80
2022-12-23T10:57:29.757Z,6.81
2022-12-23T10:58:29.763Z,6.81
2022-12-23T10:59:29.752Z,6.81
2022-12-23T11:00:29.845Z,6.81
2022-12-23T11:01:29.889Z,6.81
2022-12-23T11:02:29.999Z,6.83
2022-12-23T11:03:30.012Z,6.81
2022-12-23T11:04:29.690Z,6.81
2022-12-23T11:05:29.678Z,6.81
2022-12-23T11:06:36.614Z,6.81
2022-12-23T11:07:46.165Z,6.83
2022-12-23T11:08:29.646Z,6.83
2022-12-23T11:09:29.627Z,6.84
2022-12-23T11:10:29.621Z,6.86
2022-12-23T11:11:31.654Z,6.89
2022-12-23T11:12:29.685Z,6.89
2022-12-23T11:13:29.644Z,6.90
2022-12-23T11:14:29.575Z,6.90
2022-12-23T11:15:29.573Z,6.91
2022-12-23T11:16:29.633Z,6.94
2022-12-23T11:17:29.553Z,6.95
2022-12-23T11:18:30.878Z,6.97
2022-12-23T11:19:29.529Z,6.99
2022-12-23T11:20:29.523Z,6.99
2022-12-23T11:21:29.495Z,7.02
2022-12-23T11:22:29.503Z,7.01
2022-12-23T11:23:29.599Z,7.04
2022-12-23T11:24:29.476Z,7.05
2022-12-23T11:25:29.452Z,7.08
2022-12-23T11:26:29.441Z,7.12
2022-12-23T11:27:29.439Z,7.13
2022-12-23T11:28:29.427Z,7.15
2022-12-23T11:29:29.417Z,7.17
2022-12-23T11:30:30.741Z,7.16
2022-12-23T11:31:29.451Z,7.19
2022-12-23T11:32:29.369Z,7.17
2022-12-23T11:33:29.356Z,7.17
2022-12-23T11:34:29.401Z,7.16
2022-12-23T11:35:29.530Z,7.16
2022-12-23T11:36:29.335Z,7.16
2022-12-23T11:37:29.330Z,7.16
2022-12-23T11:38:29.307Z,7.17
2022-12-23T11:39:29.306Z,7.17
2022-12-23T11:40:29.308Z,7.19
2022-12-23T11:41:29.285Z,7.17
2022-12-23T11:42:29.266Z,7.19
2022-12-23T11:43:29.268Z,7.20
2022-12-23T11:44:29.235Z,7.20
2022-12-23T11:45:29.283Z,7.22
2022-12-23T11:46:29.297Z,7.23
2022-12-23T11:47:29.321Z,7.23
2022-12-23T11:48:29.226Z,7.24
2022-12-23T11:49:29.186Z,7.24
2022-12-23T11:50:29.201Z,7.24
2022-12-23T11:51:29.167Z,7.22
2022-12-23T11:52:29.152Z,7.22
2022-12-23T11:53:29.138Z,7.23
2022-12-23T11:54:29.139Z,7.22
2022-12-23T11:55:29.160Z,7.23
2022-12-23T11:56:29.173Z,7.24
2022-12-23T11:57:29.099Z,7.26
2022-12-23T11:58:29.100Z,7.29
2022-12-23T11:59:29.078Z,7.31
2022-12-23T12:00:29.079Z,7.32
2022-12-23T12:01:29.069Z,7.34
2022-12-23T12:02:29.093Z,7.35
2022-12-23T12:03:29.130Z,7.38
2022-12-23T12:04:29.020Z,7.40
2022-12-23T12:05:29.272Z,7.42
2022-12-23T12:06:29.025Z,7.42
2022-12-23T12:07:29.007Z,7.44
2022-12-23T12:08:28.970Z,7.41
2022-12-23T12:09:28.957Z,7.42
2022-12-23T12:10:28.959Z,7.44
2022-12-23T12:11:28.958Z,7.45
2022-12-23T12:12:28.924Z,7.47
2022-12-23T12:13:28.923Z,7.47
2022-12-23T12:14:28.910Z,7.49
2022-12-23T12:15:28.907Z,7.47
2022-12-23T12:16:29.232Z,7.45
2022-12-23T12:17:28.885Z,7.45
2022-12-23T12:18:28.857Z,7.45
2022-12-23T12:19:29.100Z,7.44
2022-12-23T12:20:28.835Z,7.41
2022-12-23T12:21:28.843Z,7.41
2022-12-23T12:22:28.809Z,7.42
2022-12-23T12:23:28.821Z,7.42
2022-12-23T12:24:28.843Z,7.42
2022-12-23T12:25:28.789Z,7.44
2022-12-23T12:26:28.795Z,7.45
2022-12-23T12:27:29.636Z,7.45
2022-12-23T12:28:28.747Z,7.45
2022-12-23T12:29:28.734Z,7.45
2022-12-23T12:30:28.752Z,7.45
2022-12-23T12:31:28.787Z,7.45
2022-12-23T12:32:28.703Z,7.44
2022-12-23T12:33:28.717Z,7.41
2022-12-23T12:34:28.684Z,7.40
2022-12-23T12:35:28.669Z,7.38
2022-12-23T12:36:28.709Z,7.38
2022-12-23T12:37:28.642Z,7.38
2022-12-23T12:38:28.774Z,7.38
2022-12-23T12:39:28.677Z,7.40
2022-12-23T12:40:28.631Z,7.42
2022-12-23T12:41:28.676Z,7.44
2022-12-23T12:42:28.611Z,7.47
2022-12-23T12:43:28.600Z,7.50
2022-12-23T12:44:28.570Z,7.50
2022-12-23T12:45:28.631Z,7.52
2022-12-23T12:46:28.611Z,7.52
2022-12-23T12:47:52.782Z,7.55
2022-12-23T12:48:28.549Z,7.58
2022-12-23T12:49:28.519Z,7.59
2022-12-23T12:50:28.542Z,7.60
2022-12-23T12:51:28.489Z,7.60
2022-12-23T12:52:28.477Z,7.60
2022-12-23T12:53:28.475Z,7.62
2022-12-23T12:54:28.461Z,7.62
2022-12-23T12:55:28.460Z,7.62
2022-12-23T12:56:28.475Z,7.63
2022-12-23T12:57:28.429Z,7.62
2022-12-23T12:58:28.434Z,7.63
2022-12-23T12:59:28.429Z,7.62
2022-12-23T13:00:28.489Z,7.60
2022-12-23T13:01:29.328Z,7.60
2022-12-23T13:02:28.438Z,7.60
2022-12-23T13:03:29.140Z,7.60
2022-12-23T13:04:28.372Z,7.60
2022-12-23T13:05:28.579Z,7.60
2022-12-23T13:06:28.361Z,7.58
2022-12-23T13:07:28.335Z,7.56
2022-12-23T13:08:28.435Z,7.53
2022-12-23T13:09:28.294Z,7.50
2022-12-23T13:10:28.350Z,7.50
2022-12-23T13:11:28.892Z,7.50
2022-12-23T13:12:28.357Z,7.49
2022-12-23T13:13:28.262Z,7.49
2022-12-23T13:14:28.387Z,7.47
2022-12-23T13:15:28.232Z,7.47
2022-12-23T13:16:28.299Z,7.49
2022-12-23T13:17:28.210Z,7.49
2022-12-23T13:18:28.410Z,7.47
2022-12-23T13:19:28.203Z,7.45